sensor_id;sensor_type;location;lat;lon;timestamp;temperature;humidity
569;DHT22;269;48.884;9.192;2023-02-28T00:00:30;-0.60;95.80
569;DHT22;269;48.884;9.192;2023-02-28T00:02:58;-0.60;96.00
569;DHT22;269;48.884;9.192;2023-02-28T00:05:26;-0.60;96.30
569;DHT22;269;48.884;9.192;2023-02-28T00:07:54;-0.60;96.50
569;DHT22;269;48.884;9.192;2023-02-28T00:10:23;-0.60;97.00
569;DHT22;269;48.884;9.192;2023-02-28T00:12:54;-0.60;96.90
569;DHT22;269;48.884;9.192;2023-02-28T00:15:23;-0.60;97.30
569;DHT22;269;48.884;9.192;2023-02-28T00:17:50;-0.60;97.20
569;DHT22;269;48.884;9.192;2023-02-28T00:20:18;-0.60;97.40
569;DHT22;269;48.884;9.192;2023-02-28T00:22:47;-0.60;97.70
569;DHT22;269;48.884;9.192;2023-02-28T00:25:16;-0.60;98.10
569;DHT22;269;48.884;9.192;2023-02-28T00:27:44;-0.60;98.30
569;DHT22;269;48.884;9.192;2023-02-28T00:30:15;-0.60;98.50
569;DHT22;269;48.884;9.192;2023-02-28T00:32:42;-0.60;98.80
569;DHT22;269;48.884;9.192;2023-02-28T00:35:09;-0.70;99.10
569;DHT22;269;48.884;9.192;2023-02-28T00:37:38;-0.70;99.40
569;DHT22;269;48.884;9.192;2023-02-28T00:40:07;-0.70;99.60
569;DHT22;269;48.884;9.192;2023-02-28T00:42:35;-0.70;99.90
569;DHT22;269;48.884;9.192;2023-02-28T00:45:04;-0.70;99.90
569;DHT22;269;48.884;9.192;2023-02-28T00:47:32;-0.70;99.90
569;DHT22;269;48.884;9.192;2023-02-28T00:49:59;-0.70;99.90
569;DHT22;269;48.884;9.192;2023-02-28T00:52:27;-0.70;99.90
569;DHT22;269;48.884;9.192;2023-02-28T00:54:54;-0.80;99.90
569;DHT22;269;48.884;9.192;2023-02-28T00:57:21;-0.70;99.90
569;DHT22;269;48.884;9.192;2023-02-28T00:59:49;-0.80;99.90
569;DHT22;269;48.884;9.192;2023-02-28T01:02:16;-0.80;99.90
569;DHT22;269;48.884;9.192;2023-02-28T01:04:45;-0.80;99.90
569;DHT22;269;48.884;9.192;2023-02-28T01:07:12;-0.80;99.90
569;DHT22;269;48.884;9.192;2023-02-28T01:09:40;-0.80;99.90
569;DHT22;269;48.884;9.192;2023-02-28T01:12:07;-0.80;99.90
569;DHT22;269;48.884;9.192;2023-02-28T01:14:35;-0.80;99.90
569;DHT22;269;48.884;9.192;2023-02-28T01:17:02;-0.80;99.90
569;DHT22;269;48.884;9.192;2023-02-28T01:19:30;-0.80;99.90
569;DHT22;269;48.884;9.192;2023-02-28T01:22:00;-0.80;99.90
569;DHT22;269;48.884;9.192;2023-02-28T01:24:27;-0.90;99.90
569;DHT22;269;48.884;9.192;2023-02-28T01:26:54;-0.80;99.90
569;DHT22;269;48.884;9.192;2023-02-28T01:29:21;-0.80;99.90
569;DHT22;269;48.884;9.192;2023-02-28T01:31:48;-0.80;99.90
569;DHT22;269;48.884;9.192;2023-02-28T01:34:16;-0.80;99.90
569;DHT22;269;48.884;9.192;2023-02-28T01:36:45;-0.80;99.90
569;DHT22;269;48.884;9.192;2023-02-28T01:39:13;-0.90;99.90
569;DHT22;269;48.884;9.192;2023-02-28T01:41:40;-0.90;99.90
569;DHT22;269;48.884;9.192;2023-02-28T01:47:22;-0.90;99.90
569;DHT22;269;48.884;9.192;2023-02-28T01:49:51;-0.90;99.90
569;DHT22;269;48.884;9.192;2023-02-28T01:52:19;-0.90;99.90
569;DHT22;269;48.884;9.192;2023-02-28T01:54:51;-1.00;99.90
569;DHT22;269;48.884;9.192;2023-02-28T01:57:22;-1.00;99.90
569;DHT22;269;48.884;9.192;2023-02-28T01:59:53;-1.00;99.90
569;DHT22;269;48.884;9.192;2023-02-28T02:02:22;-1.00;99.90
569;DHT22;269;48.884;9.192;2023-02-28T02:04:53;-1.00;99.90
569;DHT22;269;48.884;9.192;2023-02-28T02:07:22;-1.00;99.90
569;DHT22;269;48.884;9.192;2023-02-28T02:09:59;-1.00;99.90
569;DHT22;269;48.884;9.192;2023-02-28T02:12:34;-1.00;99.90
569;DHT22;269;48.884;9.192;2023-02-28T02:15:09;-0.90;99.90
569;DHT22;269;48.884;9.192;2023-02-28T02:17:43;-1.00;99.90
569;DHT22;269;48.884;9.192;2023-02-28T02:20:38;-1.00;99.90
569;DHT22;269;48.884;9.192;2023-02-28T02:23:33;-1.00;99.90
569;DHT22;269;48.884;9.192;2023-02-28T02:26:38;-1.00;99.90
569;DHT22;269;48.884;9.192;2023-02-28T02:32:33;-0.90;99.90
569;DHT22;269;48.884;9.192;2023-02-28T02:35:13;-0.90;99.90
569;DHT22;269;48.884;9.192;2023-02-28T02:37:47;-0.90;99.90
569;DHT22;269;48.884;9.192;2023-02-28T02:40:18;-0.90;99.90
569;DHT22;269;48.884;9.192;2023-02-28T02:42:51;-0.90;99.90
569;DHT22;269;48.884;9.192;2023-02-28T02:45:24;-0.90;99.90
569;DHT22;269;48.884;9.192;2023-02-28T02:47:53;-0.80;99.90
569;DHT22;269;48.884;9.192;2023-02-28T02:50:26;-0.80;99.90
569;DHT22;269;48.884;9.192;2023-02-28T02:52:57;-0.80;99.90
569;DHT22;269;48.884;9.192;2023-02-28T02:55:25;-0.80;99.90
569;DHT22;269;48.884;9.192;2023-02-28T02:57:56;-0.80;99.90
569;DHT22;269;48.884;9.192;2023-02-28T03:00:28;-0.70;99.90
569;DHT22;269;48.884;9.192;2023-02-28T03:02:58;-0.70;99.90
569;DHT22;269;48.884;9.192;2023-02-28T03:05:30;-0.70;99.90
569;DHT22;269;48.884;9.192;2023-02-28T03:07:59;-0.70;99.90
569;DHT22;269;48.884;9.192;2023-02-28T03:10:30;-0.70;99.90
569;DHT22;269;48.884;9.192;2023-02-28T03:16:06;-0.70;99.90
569;DHT22;269;48.884;9.192;2023-02-28T03:18:43;-0.70;99.90
569;DHT22;269;48.884;9.192;2023-02-28T03:21:23;-0.70;99.90
569;DHT22;269;48.884;9.192;2023-02-28T03:23:58;-0.60;99.90
569;DHT22;269;48.884;9.192;2023-02-28T03:26:29;-0.60;99.90
569;DHT22;269;48.884;9.192;2023-02-28T03:29:02;-0.60;99.90
569;DHT22;269;48.884;9.192;2023-02-28T03:31:32;-0.60;99.90
569;DHT22;269;48.884;9.192;2023-02-28T03:34:05;-0.60;99.90
569;DHT22;269;48.884;9.192;2023-02-28T03:36:38;-0.60;99.90
569;DHT22;269;48.884;9.192;2023-02-28T03:39:13;-0.50;99.90
569;DHT22;269;48.884;9.192;2023-02-28T03:41:44;-0.50;99.90
569;DHT22;269;48.884;9.192;2023-02-28T03:44:18;-0.50;99.90
569;DHT22;269;48.884;9.192;2023-02-28T03:46:49;-0.50;99.90
569;DHT22;269;48.884;9.192;2023-02-28T03:49:23;-0.50;99.90
569;DHT22;269;48.884;9.192;2023-02-28T03:51:53;-0.50;99.90
569;DHT22;269;48.884;9.192;2023-02-28T03:54:23;-0.50;99.90
569;DHT22;269;48.884;9.192;2023-02-28T03:56:55;-0.50;99.90
569;DHT22;269;48.884;9.192;2023-02-28T03:59:27;-0.50;99.90
569;DHT22;269;48.884;9.192;2023-02-28T04:01:57;-0.50;99.90
569;DHT22;269;48.884;9.192;2023-02-28T04:04:24;-0.50;99.90
569;DHT22;269;48.884;9.192;2023-02-28T04:07:01;-0.50;99.90
569;DHT22;269;48.884;9.192;2023-02-28T04:09:28;-0.50;99.90
569;DHT22;269;48.884;9.192;2023-02-28T04:11:55;-0.50;99.90
569;DHT22;269;48.884;9.192;2023-02-28T04:14:22;-0.40;99.90
569;DHT22;269;48.884;9.192;2023-02-28T04:16:50;-0.40;99.90
569;DHT22;269;48.884;9.192;2023-02-28T04:19:18;-0.40;99.90
569;DHT22;269;48.884;9.192;2023-02-28T04:21:47;-0.40;99.90
569;DHT22;269;48.884;9.192;2023-02-28T04:24:17;-0.40;99.90
569;DHT22;269;48.884;9.192;2023-02-28T04:26:46;-0.30;99.90
569;DHT22;269;48.884;9.192;2023-02-28T04:29:19;-0.40;99.90
569;DHT22;269;48.884;9.192;2023-02-28T04:31:46;-0.30;99.90
569;DHT22;269;48.884;9.192;2023-02-28T04:34:13;-0.30;99.90
569;DHT22;269;48.884;9.192;2023-02-28T04:36:40;-0.30;99.90
569;DHT22;269;48.884;9.192;2023-02-28T04:39:08;-0.20;99.90
569;DHT22;269;48.884;9.192;2023-02-28T04:41:37;-0.30;99.90
569;DHT22;269;48.884;9.192;2023-02-28T04:44:04;-0.20;99.90
569;DHT22;269;48.884;9.192;2023-02-28T04:46:31;-0.20;99.90
569;DHT22;269;48.884;9.192;2023-02-28T04:48:58;-0.30;99.90
569;DHT22;269;48.884;9.192;2023-02-28T04:51:25;-0.30;99.90
569;DHT22;269;48.884;9.192;2023-02-28T04:53:52;-0.20;99.90
569;DHT22;269;48.884;9.192;2023-02-28T04:56:19;-0.20;99.90
569;DHT22;269;48.884;9.192;2023-02-28T04:58:48;-0.30;99.90
569;DHT22;269;48.884;9.192;2023-02-28T05:01:22;-0.30;99.90
569;DHT22;269;48.884;9.192;2023-02-28T05:03:50;-0.30;99.90
569;DHT22;269;48.884;9.192;2023-02-28T05:06:19;-0.20;99.90
569;DHT22;269;48.884;9.192;2023-02-28T05:08:47;-0.20;99.90
569;DHT22;269;48.884;9.192;2023-02-28T05:11:16;-0.20;99.90
569;DHT22;269;48.884;9.192;2023-02-28T05:13:45;-0.20;99.90
569;DHT22;269;48.884;9.192;2023-02-28T05:16:14;-0.20;99.90
569;DHT22;269;48.884;9.192;2023-02-28T05:18:42;-0.20;99.90
569;DHT22;269;48.884;9.192;2023-02-28T05:21:23;-0.20;99.90
569;DHT22;269;48.884;9.192;2023-02-28T05:23:51;-0.20;99.90
569;DHT22;269;48.884;9.192;2023-02-28T05:26:18;-0.10;99.90
569;DHT22;269;48.884;9.192;2023-02-28T05:28:45;-0.10;99.90
569;DHT22;269;48.884;9.192;2023-02-28T05:31:14;-0.10;99.90
569;DHT22;269;48.884;9.192;2023-02-28T05:33:41;-0.10;99.90
569;DHT22;269;48.884;9.192;2023-02-28T05:36:08;-0.10;99.90
569;DHT22;269;48.884;9.192;2023-02-28T05:38:35;-0.10;99.90
569;DHT22;269;48.884;9.192;2023-02-28T05:41:06;-0.10;99.90
569;DHT22;269;48.884;9.192;2023-02-28T05:43:34;-0.10;99.90
569;DHT22;269;48.884;9.192;2023-02-28T05:46:03;-0.10;99.90
569;DHT22;269;48.884;9.192;2023-02-28T05:48:33;-0.10;99.90
569;DHT22;269;48.884;9.192;2023-02-28T05:51:00;-0.10;99.90
569;DHT22;269;48.884;9.192;2023-02-28T05:53:28;-0.10;99.90
569;DHT22;269;48.884;9.192;2023-02-28T05:55:56;-0.10;99.90
569;DHT22;269;48.884;9.192;2023-02-28T05:58:23;0.00;99.90
569;DHT22;269;48.884;9.192;2023-02-28T06:00:51;0.00;99.90
569;DHT22;269;48.884;9.192;2023-02-28T06:03:18;0.00;99.90
569;DHT22;269;48.884;9.192;2023-02-28T06:05:46;0.00;99.90
569;DHT22;269;48.884;9.192;2023-02-28T06:08:13;0.00;99.90
569;DHT22;269;48.884;9.192;2023-02-28T06:10:40;0.10;99.90
569;DHT22;269;48.884;9.192;2023-02-28T06:13:08;0.10;99.90
569;DHT22;269;48.884;9.192;2023-02-28T06:15:35;0.10;99.90
569;DHT22;269;48.884;9.192;2023-02-28T06:18:02;0.10;99.90
569;DHT22;269;48.884;9.192;2023-02-28T06:20:29;0.20;99.90
569;DHT22;269;48.884;9.192;2023-02-28T06:22:58;0.20;99.90
569;DHT22;269;48.884;9.192;2023-02-28T06:25:27;0.20;99.90
569;DHT22;269;48.884;9.192;2023-02-28T06:27:54;0.10;99.90
569;DHT22;269;48.884;9.192;2023-02-28T06:30:21;0.20;99.90
569;DHT22;269;48.884;9.192;2023-02-28T06:32:51;0.10;99.90
569;DHT22;269;48.884;9.192;2023-02-28T06:35:18;0.20;99.90
569;DHT22;269;48.884;9.192;2023-02-28T06:37:45;0.20;99.90
569;DHT22;269;48.884;9.192;2023-02-28T06:40:14;0.20;99.90
569;DHT22;269;48.884;9.192;2023-02-28T06:42:41;0.20;99.90
569;DHT22;269;48.884;9.192;2023-02-28T06:45:09;0.20;99.90
569;DHT22;269;48.884;9.192;2023-02-28T06:47:37;0.20;99.90
569;DHT22;269;48.884;9.192;2023-02-28T06:50:07;0.00;99.90
569;DHT22;269;48.884;9.192;2023-02-28T06:52:34;0.00;99.90
569;DHT22;269;48.884;9.192;2023-02-28T06:55:04;0.00;99.90
569;DHT22;269;48.884;9.192;2023-02-28T06:57:34;0.10;99.90
569;DHT22;269;48.884;9.192;2023-02-28T07:00:04;0.10;99.90
569;DHT22;269;48.884;9.192;2023-02-28T07:02:33;0.20;99.90
569;DHT22;269;48.884;9.192;2023-02-28T07:05:00;0.20;99.90
569;DHT22;269;48.884;9.192;2023-02-28T07:07:27;0.30;99.90
569;DHT22;269;48.884;9.192;2023-02-28T07:09:55;0.30;99.90
569;DHT22;269;48.884;9.192;2023-02-28T07:12:22;0.30;99.90
569;DHT22;269;48.884;9.192;2023-02-28T07:14:50;0.40;99.90
569;DHT22;269;48.884;9.192;2023-02-28T07:17:17;0.40;99.90
569;DHT22;269;48.884;9.192;2023-02-28T07:19:44;0.50;99.90
569;DHT22;269;48.884;9.192;2023-02-28T07:22:11;0.50;99.90
569;DHT22;269;48.884;9.192;2023-02-28T07:24:38;0.50;99.90
569;DHT22;269;48.884;9.192;2023-02-28T07:27:05;0.50;99.90
569;DHT22;269;48.884;9.192;2023-02-28T07:29:32;0.50;99.90
569;DHT22;269;48.884;9.192;2023-02-28T07:32:01;0.50;99.90
569;DHT22;269;48.884;9.192;2023-02-28T07:34:28;0.50;99.90
569;DHT22;269;48.884;9.192;2023-02-28T07:36:55;0.50;99.90
569;DHT22;269;48.884;9.192;2023-02-28T07:39:22;0.60;99.90
569;DHT22;269;48.884;9.192;2023-02-28T07:41:49;0.60;99.90
569;DHT22;269;48.884;9.192;2023-02-28T07:44:16;0.70;99.90
569;DHT22;269;48.884;9.192;2023-02-28T07:46:43;0.70;99.90
569;DHT22;269;48.884;9.192;2023-02-28T07:49:11;0.70;99.90
569;DHT22;269;48.884;9.192;2023-02-28T07:51:38;0.70;99.90
569;DHT22;269;48.884;9.192;2023-02-28T07:54:05;0.70;99.90
569;DHT22;269;48.884;9.192;2023-02-28T07:56:33;0.70;99.90
569;DHT22;269;48.884;9.192;2023-02-28T07:59:00;0.70;99.90
569;DHT22;269;48.884;9.192;2023-02-28T08:01:28;0.70;99.90
569;DHT22;269;48.884;9.192;2023-02-28T08:03:55;0.70;99.90
569;DHT22;269;48.884;9.192;2023-02-28T08:06:24;0.70;99.90
569;DHT22;269;48.884;9.192;2023-02-28T08:08:53;0.70;99.90
569;DHT22;269;48.884;9.192;2023-02-28T08:11:21;0.50;99.90
569;DHT22;269;48.884;9.192;2023-02-28T08:13:48;0.50;99.90
569;DHT22;269;48.884;9.192;2023-02-28T08:16:16;0.50;99.90
569;DHT22;269;48.884;9.192;2023-02-28T08:18:48;0.60;99.90
569;DHT22;269;48.884;9.192;2023-02-28T08:21:15;0.70;99.90
569;DHT22;269;48.884;9.192;2023-02-28T08:23:45;0.70;99.90
569;DHT22;269;48.884;9.192;2023-02-28T08:26:12;0.70;99.90
569;DHT22;269;48.884;9.192;2023-02-28T08:28:40;0.80;99.90
569;DHT22;269;48.884;9.192;2023-02-28T08:31:08;0.80;99.90
569;DHT22;269;48.884;9.192;2023-02-28T08:33:36;0.90;99.90
569;DHT22;269;48.884;9.192;2023-02-28T08:36:06;1.00;99.90
569;DHT22;269;48.884;9.192;2023-02-28T08:38:33;1.00;99.90
569;DHT22;269;48.884;9.192;2023-02-28T08:41:03;1.10;99.90
569;DHT22;269;48.884;9.192;2023-02-28T08:43:33;1.20;99.90
569;DHT22;269;48.884;9.192;2023-02-28T08:46:00;1.20;99.90
569;DHT22;269;48.884;9.192;2023-02-28T08:48:29;1.30;99.90
569;DHT22;269;48.884;9.192;2023-02-28T08:50:57;1.30;99.90
569;DHT22;269;48.884;9.192;2023-02-28T08:53:24;1.20;99.90
569;DHT22;269;48.884;9.192;2023-02-28T08:55:58;1.20;99.90
569;DHT22;269;48.884;9.192;2023-02-28T08:58:27;1.20;99.90
569;DHT22;269;48.884;9.192;2023-02-28T09:00:54;1.20;99.90
569;DHT22;269;48.884;9.192;2023-02-28T09:03:22;1.10;99.90
569;DHT22;269;48.884;9.192;2023-02-28T09:05:54;1.20;99.90
569;DHT22;269;48.884;9.192;2023-02-28T09:08:22;1.10;99.90
569;DHT22;269;48.884;9.192;2023-02-28T09:10:49;1.10;99.90
569;DHT22;269;48.884;9.192;2023-02-28T09:13:17;1.10;99.90
569;DHT22;269;48.884;9.192;2023-02-28T09:15:45;1.00;99.90
569;DHT22;269;48.884;9.192;2023-02-28T09:18:13;1.10;99.90
569;DHT22;269;48.884;9.192;2023-02-28T09:20:41;1.20;99.90
569;DHT22;269;48.884;9.192;2023-02-28T09:23:10;1.30;99.90
569;DHT22;269;48.884;9.192;2023-02-28T09:25:44;1.40;99.90
569;DHT22;269;48.884;9.192;2023-02-28T09:28:12;1.40;99.90
569;DHT22;269;48.884;9.192;2023-02-28T09:30:40;1.40;99.90
569;DHT22;269;48.884;9.192;2023-02-28T09:33:08;1.50;99.90
569;DHT22;269;48.884;9.192;2023-02-28T09:35:35;1.50;99.90
569;DHT22;269;48.884;9.192;2023-02-28T09:38:04;1.60;99.90
569;DHT22;269;48.884;9.192;2023-02-28T09:40:31;1.60;99.90
569;DHT22;269;48.884;9.192;2023-02-28T09:42:59;1.70;99.90
569;DHT22;269;48.884;9.192;2023-02-28T09:45:30;1.80;99.90
569;DHT22;269;48.884;9.192;2023-02-28T09:48:02;1.90;99.90
569;DHT22;269;48.884;9.192;2023-02-28T09:50:36;1.90;99.90
569;DHT22;269;48.884;9.192;2023-02-28T09:53:13;2.00;99.90
569;DHT22;269;48.884;9.192;2023-02-28T09:55:43;2.10;99.90
569;DHT22;269;48.884;9.192;2023-02-28T09:58:18;2.10;99.90
569;DHT22;269;48.884;9.192;2023-02-28T10:00:52;2.10;99.90
569;DHT22;269;48.884;9.192;2023-02-28T10:03:34;2.00;99.90
569;DHT22;269;48.884;9.192;2023-02-28T10:06:08;2.00;99.90
569;DHT22;269;48.884;9.192;2023-02-28T10:08:45;2.10;99.90
569;DHT22;269;48.884;9.192;2023-02-28T10:11:18;2.10;99.90
569;DHT22;269;48.884;9.192;2023-02-28T10:13:51;2.10;99.90
569;DHT22;269;48.884;9.192;2023-02-28T10:16:25;2.10;99.90
569;DHT22;269;48.884;9.192;2023-02-28T10:18:57;2.10;99.90
569;DHT22;269;48.884;9.192;2023-02-28T10:21:34;2.30;99.90
569;DHT22;269;48.884;9.192;2023-02-28T10:24:05;2.40;99.90
569;DHT22;269;48.884;9.192;2023-02-28T10:26:38;2.60;99.90
569;DHT22;269;48.884;9.192;2023-02-28T10:29:07;2.60;99.90
569;DHT22;269;48.884;9.192;2023-02-28T10:31:34;2.80;99.90
569;DHT22;269;48.884;9.192;2023-02-28T10:34:02;2.80;99.90
569;DHT22;269;48.884;9.192;2023-02-28T10:36:33;2.90;99.90
569;DHT22;269;48.884;9.192;2023-02-28T10:39:36;2.80;99.90
569;DHT22;269;48.884;9.192;2023-02-28T10:42:03;2.60;99.90
569;DHT22;269;48.884;9.192;2023-02-28T10:44:31;2.70;99.90
569;DHT22;269;48.884;9.192;2023-02-28T10:46:58;2.80;99.90
569;DHT22;269;48.884;9.192;2023-02-28T10:49:26;2.80;99.90
569;DHT22;269;48.884;9.192;2023-02-28T10:51:57;2.80;99.90
569;DHT22;269;48.884;9.192;2023-02-28T10:54:29;2.80;99.90
569;DHT22;269;48.884;9.192;2023-02-28T10:57:07;3.10;99.90
569;DHT22;269;48.884;9.192;2023-02-28T10:59:35;3.30;99.90
569;DHT22;269;48.884;9.192;2023-02-28T11:02:31;3.30;99.90
569;DHT22;269;48.884;9.192;2023-02-28T11:04:58;3.40;99.90
569;DHT22;269;48.884;9.192;2023-02-28T11:07:27;3.40;99.90
569;DHT22;269;48.884;9.192;2023-02-28T11:09:56;3.60;99.90
569;DHT22;269;48.884;9.192;2023-02-28T11:12:25;3.70;99.90
569;DHT22;269;48.884;9.192;2023-02-28T11:14:56;3.90;99.90
569;DHT22;269;48.884;9.192;2023-02-28T11:17:28;4.10;99.90
569;DHT22;269;48.884;9.192;2023-02-28T11:19:58;4.60;99.90
569;DHT22;269;48.884;9.192;2023-02-28T11:22:30;5.20;99.90
569;DHT22;269;48.884;9.192;2023-02-28T11:25:01;6.10;99.90
569;DHT22;269;48.884;9.192;2023-02-28T11:27:44;7.00;99.90
569;DHT22;269;48.884;9.192;2023-02-28T11:30:32;7.60;98.20
569;DHT22;269;48.884;9.192;2023-02-28T11:33:01;8.00;97.70
569;DHT22;269;48.884;9.192;2023-02-28T11:35:37;8.30;96.60
569;DHT22;269;48.884;9.192;2023-02-28T11:38:09;8.10;96.00
569;DHT22;269;48.884;9.192;2023-02-28T11:40:45;8.10;94.80
569;DHT22;269;48.884;9.192;2023-02-28T11:43:25;7.60;94.20
569;DHT22;269;48.884;9.192;2023-02-28T11:46:09;7.50;95.60
569;DHT22;269;48.884;9.192;2023-02-28T11:48:45;8.10;94.70
569;DHT22;269;48.884;9.192;2023-02-28T11:51:20;9.00;93.70
569;DHT22;269;48.884;9.192;2023-02-28T11:56:44;10.50;90.50
569;DHT22;269;48.884;9.192;2023-02-28T11:59:35;10.50;88.90
569;DHT22;269;48.884;9.192;2023-02-28T12:02:18;10.50;86.50
569;DHT22;269;48.884;9.192;2023-02-28T12:04:54;10.20;86.00
569;DHT22;269;48.884;9.192;2023-02-28T12:07:31;10.20;85.70
569;DHT22;269;48.884;9.192;2023-02-28T12:10:09;10.10;85.30
569;DHT22;269;48.884;9.192;2023-02-28T12:12:47;10.30;84.60
569;DHT22;269;48.884;9.192;2023-02-28T12:15:37;10.40;82.90
569;DHT22;269;48.884;9.192;2023-02-28T12:18:14;9.40;83.60
569;DHT22;269;48.884;9.192;2023-02-28T12:20:51;8.40;84.50
569;DHT22;269;48.884;9.192;2023-02-28T12:23:46;7.60;87.00
569;DHT22;269;48.884;9.192;2023-02-28T12:26:22;7.50;87.60
569;DHT22;269;48.884;9.192;2023-02-28T12:28:57;7.80;88.10
569;DHT22;269;48.884;9.192;2023-02-28T12:31:30;8.50;93.00
569;DHT22;269;48.884;9.192;2023-02-28T12:34:03;9.20;85.90
569;DHT22;269;48.884;9.192;2023-02-28T12:36:33;9.50;85.70
569;DHT22;269;48.884;9.192;2023-02-28T12:39:08;10.00;82.70
569;DHT22;269;48.884;9.192;2023-02-28T12:41:42;9.90;81.30
569;DHT22;269;48.884;9.192;2023-02-28T12:44:15;9.30;82.30
569;DHT22;269;48.884;9.192;2023-02-28T12:46:47;9.10;83.20
569;DHT22;269;48.884;9.192;2023-02-28T12:49:19;9.10;83.90
569;DHT22;269;48.884;9.192;2023-02-28T12:51:49;9.70;83.80
569;DHT22;269;48.884;9.192;2023-02-28T12:54:22;10.50;80.70
569;DHT22;269;48.884;9.192;2023-02-28T12:56:58;10.40;78.90
569;DHT22;269;48.884;9.192;2023-02-28T12:59:34;10.80;78.20
569;DHT22;269;48.884;9.192;2023-02-28T13:02:25;11.00;76.20
569;DHT22;269;48.884;9.192;2023-02-28T13:05:23;10.40;77.40
569;DHT22;269;48.884;9.192;2023-02-28T13:08:24;10.60;78.20
569;DHT22;269;48.884;9.192;2023-02-28T13:10:57;9.70;78.50
569;DHT22;269;48.884;9.192;2023-02-28T13:13:27;9.70;79.90
569;DHT22;269;48.884;9.192;2023-02-28T13:15:58;10.20;79.20
569;DHT22;269;48.884;9.192;2023-02-28T13:18:30;10.90;77.50
569;DHT22;269;48.884;9.192;2023-02-28T13:20:58;11.30;76.60
569;DHT22;269;48.884;9.192;2023-02-28T13:24:01;11.60;75.90
569;DHT22;269;48.884;9.192;2023-02-28T13:29:36;12.50;70.10
569;DHT22;269;48.884;9.192;2023-02-28T13:32:35;12.40;71.90
569;DHT22;269;48.884;9.192;2023-02-28T13:35:37;12.80;71.40
569;DHT22;269;48.884;9.192;2023-02-28T13:38:17;12.90;70.30
569;DHT22;269;48.884;9.192;2023-02-28T13:40:48;13.20;68.70
569;DHT22;269;48.884;9.192;2023-02-28T13:43:17;13.30;67.90
569;DHT22;269;48.884;9.192;2023-02-28T13:46:08;13.20;68.00
569;DHT22;269;48.884;9.192;2023-02-28T13:48:37;13.20;66.90
569;DHT22;269;48.884;9.192;2023-02-28T13:51:35;12.90;66.40
569;DHT22;269;48.884;9.192;2023-02-28T13:54:17;12.80;67.30
569;DHT22;269;48.884;9.192;2023-02-28T13:56:54;12.60;66.20
569;DHT22;269;48.884;9.192;2023-02-28T13:59:33;12.00;67.40
569;DHT22;269;48.884;9.192;2023-02-28T14:02:34;11.90;67.70
569;DHT22;269;48.884;9.192;2023-02-28T14:05:06;11.90;68.50
569;DHT22;269;48.884;9.192;2023-02-28T14:07:44;12.20;68.10
569;DHT22;269;48.884;9.192;2023-02-28T14:10:25;12.00;66.70
569;DHT22;269;48.884;9.192;2023-02-28T14:13:11;11.70;67.30
569;DHT22;269;48.884;9.192;2023-02-28T14:15:41;10.70;68.30
569;DHT22;269;48.884;9.192;2023-02-28T14:18:23;10.50;70.60
569;DHT22;269;48.884;9.192;2023-02-28T14:21:14;11.00;69.90
569;DHT22;269;48.884;9.192;2023-02-28T14:24:03;11.20;68.70
569;DHT22;269;48.884;9.192;2023-02-28T14:26:51;11.30;69.00
569;DHT22;269;48.884;9.192;2023-02-28T14:29:36;11.40;68.80
569;DHT22;269;48.884;9.192;2023-02-28T14:32:13;10.90;68.40
569;DHT22;269;48.884;9.192;2023-02-28T14:34:47;10.40;69.50
569;DHT22;269;48.884;9.192;2023-02-28T14:37:20;10.20;69.90
569;DHT22;269;48.884;9.192;2023-02-28T14:39:49;10.00;71.10
569;DHT22;269;48.884;9.192;2023-02-28T14:42:31;10.30;70.90
569;DHT22;269;48.884;9.192;2023-02-28T14:44:58;10.80;70.10
569;DHT22;269;48.884;9.192;2023-02-28T14:47:28;11.00;69.80
569;DHT22;269;48.884;9.192;2023-02-28T14:49:59;11.30;70.30
569;DHT22;269;48.884;9.192;2023-02-28T14:52:29;11.60;69.30
569;DHT22;269;48.884;9.192;2023-02-28T14:54:58;11.40;68.90
569;DHT22;269;48.884;9.192;2023-02-28T14:57:27;10.80;68.50
569;DHT22;269;48.884;9.192;2023-02-28T15:00:00;10.60;70.30
569;DHT22;269;48.884;9.192;2023-02-28T15:02:30;10.60;70.10
569;DHT22;269;48.884;9.192;2023-02-28T15:05:01;10.30;70.10
569;DHT22;269;48.884;9.192;2023-02-28T15:07:29;10.20;70.80
569;DHT22;269;48.884;9.192;2023-02-28T15:10:13;9.80;72.40
569;DHT22;269;48.884;9.192;2023-02-28T15:12:46;9.30;73.60
569;DHT22;269;48.884;9.192;2023-02-28T15:15:16;8.90;74.70
569;DHT22;269;48.884;9.192;2023-02-28T15:17:46;8.80;75.60
569;DHT22;269;48.884;9.192;2023-02-28T15:20:16;9.00;76.30
569;DHT22;269;48.884;9.192;2023-02-28T15:22:46;9.40;76.30
569;DHT22;269;48.884;9.192;2023-02-28T15:25:18;9.80;75.10
569;DHT22;269;48.884;9.192;2023-02-28T15:27:47;10.00;72.90
569;DHT22;269;48.884;9.192;2023-02-28T15:30:17;10.20;73.60
569;DHT22;269;48.884;9.192;2023-02-28T15:33:03;10.50;73.40
569;DHT22;269;48.884;9.192;2023-02-28T15:35:32;10.90;73.00
569;DHT22;269;48.884;9.192;2023-02-28T15:38:01;11.00;71.80
569;DHT22;269;48.884;9.192;2023-02-28T15:40:31;10.70;71.60
569;DHT22;269;48.884;9.192;2023-02-28T15:43:02;10.40;71.50
569;DHT22;269;48.884;9.192;2023-02-28T15:45:36;10.10;71.30
569;DHT22;269;48.884;9.192;2023-02-28T15:48:15;9.60;74.00
569;DHT22;269;48.884;9.192;2023-02-28T15:50:44;9.30;74.70
569;DHT22;269;48.884;9.192;2023-02-28T15:53:14;8.90;75.50
569;DHT22;269;48.884;9.192;2023-02-28T15:55:42;8.70;76.50
569;DHT22;269;48.884;9.192;2023-02-28T15:58:10;8.60;77.30
569;DHT22;269;48.884;9.192;2023-02-28T16:00:39;8.60;77.70
569;DHT22;269;48.884;9.192;2023-02-28T16:03:25;8.60;77.70
569;DHT22;269;48.884;9.192;2023-02-28T16:06:21;8.50;78.10
569;DHT22;269;48.884;9.192;2023-02-28T16:08:51;8.50;78.50
569;DHT22;269;48.884;9.192;2023-02-28T16:11:19;8.50;78.90
569;DHT22;269;48.884;9.192;2023-02-28T16:13:47;8.50;79.20
569;DHT22;269;48.884;9.192;2023-02-28T16:16:16;8.40;79.30
569;DHT22;269;48.884;9.192;2023-02-28T16:18:43;8.30;79.70
569;DHT22;269;48.884;9.192;2023-02-28T16:21:10;8.20;79.80
569;DHT22;269;48.884;9.192;2023-02-28T16:23:40;8.00;79.90
569;DHT22;269;48.884;9.192;2023-02-28T16:26:08;7.70;80.60
569;DHT22;269;48.884;9.192;2023-02-28T16:28:39;7.70;81.10
569;DHT22;269;48.884;9.192;2023-02-28T16:31:07;7.60;81.20
569;DHT22;269;48.884;9.192;2023-02-28T16:33:36;7.50;81.30
569;DHT22;269;48.884;9.192;2023-02-28T16:36:05;7.40;81.60
569;DHT22;269;48.884;9.192;2023-02-28T16:38:32;7.30;82.10
569;DHT22;269;48.884;9.192;2023-02-28T16:41:01;7.10;82.60
569;DHT22;269;48.884;9.192;2023-02-28T16:43:28;6.90;83.00
569;DHT22;269;48.884;9.192;2023-02-28T16:45:56;6.80;83.50
569;DHT22;269;48.884;9.192;2023-02-28T16:48:24;6.70;84.00
569;DHT22;269;48.884;9.192;2023-02-28T16:50:52;6.60;84.40
569;DHT22;269;48.884;9.192;2023-02-28T16:53:19;6.40;84.90
569;DHT22;269;48.884;9.192;2023-02-28T16:55:46;6.20;85.30
569;DHT22;269;48.884;9.192;2023-02-28T16:58:16;6.10;85.60
569;DHT22;269;48.884;9.192;2023-02-28T17:00:44;5.90;86.10
569;DHT22;269;48.884;9.192;2023-02-28T17:03:21;5.80;86.50
569;DHT22;269;48.884;9.192;2023-02-28T17:05:49;5.70;87.00
569;DHT22;269;48.884;9.192;2023-02-28T17:08:16;5.70;87.40
569;DHT22;269;48.884;9.192;2023-02-28T17:10:43;5.50;87.80
569;DHT22;269;48.884;9.192;2023-02-28T17:13:10;5.40;88.20
569;DHT22;269;48.884;9.192;2023-02-28T17:15:38;5.30;88.80
569;DHT22;269;48.884;9.192;2023-02-28T17:18:08;5.20;89.40
569;DHT22;269;48.884;9.192;2023-02-28T17:20:36;5.10;89.70
569;DHT22;269;48.884;9.192;2023-02-28T17:23:03;5.00;90.00
569;DHT22;269;48.884;9.192;2023-02-28T17:25:30;5.00;90.20
569;DHT22;269;48.884;9.192;2023-02-28T17:27:57;4.90;90.30